Time;durP1;ratioP1;P1;durP2;ratioP2;P2;SDS_P1;SDS_P2;PMS_P1;PMS_P2;Temp;Humidity;BMP_temperature;BMP_pressure;BME280_temperature;BME280_humidity;BME280_pressure;Samples;Min_cycle;Max_cycle;Signal;HPM_P1;HPM_P2
2024/01/19 00:01:39;;;;;;;4.78;3.55;;;8.80;72.50;;;;;;5005707;28;20049;-71
2024/01/19 00:04:05;;;;;;;4.75;2.53;;;8.80;72.70;;;;;;5006053;28;20105;-71
2024/01/19 00:06:31;;;;;;;4.40;2.85;;;8.80;72.70;;;;;;4995517;28;20402;-71
2024/01/19 00:08:57;;;;;;;6.15;3.58;;;8.80;73.30;;;;;;5008117;28;20050;-71
2024/01/19 00:11:23;;;;;;;4.40;2.72;;;8.70;72.80;;;;;;4997966;28;20037;-71
2024/01/19 00:13:48;;;;;;;5.50;3.63;;;8.70;72.80;;;;;;5030255;28;20386;-71
2024/01/19 00:16:14;;;;;;;6.25;3.30;;;8.70;72.90;;;;;;5008719;28;20488;-71
2024/01/19 00:18:40;;;;;;;4.45;2.97;;;8.70;73.00;;;;;;5014276;28;20124;-71
2024/01/19 00:21:05;;;;;;;6.40;3.33;;;8.70;73.00;;;;;;5012864;28;20099;-71
2024/01/19 00:23:31;;;;;;;5.03;2.95;;;8.70;73.00;;;;;;5010263;28;20100;-71
2024/01/19 00:25:57;;;;;;;5.70;2.55;;;8.70;73.00;;;;;;4980617;28;20041;-71
2024/01/19 00:28:23;;;;;;;4.18;3.03;;;8.70;73.20;;;;;;5030893;28;20093;-71
2024/01/19 00:30:48;;;;;;;6.05;3.03;;;8.60;73.10;;;;;;5023878;28;20037;-71
2024/01/19 00:33:14;;;;;;;7.65;2.90;;;8.60;73.10;;;;;;4995221;28;20037;-71
2024/01/19 00:35:39;;;;;;;8.63;3.33;;;8.60;73.10;;;;;;5013487;28;20044;-71
2024/01/19 00:38:05;;;;;;;3.63;2.28;;;8.60;73.10;;;;;;5014327;28;20041;-71
2024/01/19 00:40:31;;;;;;;5.20;3.05;;;8.60;73.10;;;;;;5025416;28;20030;-71
2024/01/19 00:42:56;;;;;;;4.65;2.80;;;8.60;73.20;;;;;;5011255;28;20496;-71
2024/01/19 00:45:22;;;;;;;3.95;2.65;;;8.60;73.20;;;;;;5014481;28;20239;-71
2024/01/19 00:47:48;;;;;;;4.72;2.90;;;8.50;73.20;;;;;;5029898;28;20045;-71
2024/01/19 00:50:13;;;;;;;4.65;2.33;;;8.50;73.20;;;;;;5013793;28;20037;-71
2024/01/19 00:52:39;;;;;;;3.55;2.47;;;8.50;73.20;;;;;;5013250;28;20038;-71
2024/01/19 00:55:05;;;;;;;3.88;2.47;;;8.50;73.20;;;;;;5009708;28;20037;-71
2024/01/19 00:57:31;;;;;;;6.22;2.72;;;8.50;73.20;;;;;;5007206;28;20083;-71
2024/01/19 00:59:57;;;;;;;3.35;1.98;;;8.50;73.30;;;;;;5013540;28;20558;-71
2024/01/19 01:02:27;;;;;;;4.95;2.28;;;8.60;73.40;;;;;;4996749;28;20037;-71
2024/01/19 01:04:53;;;;;;;5.07;2.50;;;8.50;73.20;;;;;;5001381;28;20057;-71
2024/01/19 01:07:18;;;;;;;3.63;2.22;;;8.50;73.40;;;;;;5009438;28;20129;-71
2024/01/19 01:09:44;;;;;;;4.00;1.83;;;8.50;73.30;;;;;;5029872;28;20116;-71
2024/01/19 01:12:10;;;;;;;3.80;1.77;;;8.50;73.30;;;;;;5024278;28;20129;-71
2024/01/19 01:14:35;;;;;;;3.40;1.88;;;8.40;73.30;;;;;;5010530;28;20053;-71
2024/01/19 01:17:01;;;;;;;3.28;1.80;;;8.50;74.10;;;;;;5030135;28;20052;-71
2024/01/19 01:19:27;;;;;;;2.28;1.80;;;8.40;73.40;;;;;;5013104;28;20045;-71
2024/01/19 01:21:52;;;;;;;3.75;1.90;;;8.40;73.40;;;;;;4995615;28;20125;-71
2024/01/19 01:24:19;;;;;;;4.00;2.08;;;8.40;73.40;;;;;;5025829;28;20045;-71
2024/01/19 01:26:44;;;;;;;2.47;1.60;;;8.40;73.40;;;;;;4995468;28;20048;-71
2024/01/19 01:29:11;;;;;;;3.58;2.10;;;8.40;73.40;;;;;;5010959;28;20041;-71
2024/01/19 01:31:36;;;;;;;2.47;1.60;;;8.40;73.40;;;;;;5016728;28;20052;-71
2024/01/19 01:34:03;;;;;;;3.58;1.92;;;8.50;73.40;;;;;;5013028;28;20045;-71
2024/01/19 01:36:29;;;;;;;3.33;1.63;;;8.40;73.40;;;;;;5009313;28;20046;-71
2024/01/19 01:38:55;;;;;;;2.92;2.10;;;8.40;73.40;;;;;;5007894;28;20114;-71
2024/01/19 01:41:20;;;;;;;2.72;2.00;;;8.40;73.40;;;;;;5027479;28;20386;-71
2024/01/19 01:43:46;;;;;;;3.00;1.52;;;8.40;73.50;;;;;;4995784;28;20041;-71
2024/01/19 01:46:12;;;;;;;2.03;1.50;;;8.40;73.50;;;;;;4995845;28;20040;-71
2024/01/19 01:48:37;;;;;;;2.15;1.50;;;8.40;73.50;;;;;;5012716;28;20087;-71
2024/01/19 01:51:04;;;;;;;4.25;1.67;;;8.40;73.50;;;;;;5011405;28;20046;-72
2024/01/19 01:53:30;;;;;;;2.67;2.15;;;8.40;73.60;;;;;;5007972;28;20400;-71
2024/01/19 01:55:56;;;;;;;3.25;1.30;;;8.40;74.30;;;;;;5015030;28;20037;-71
2024/01/19 01:58:21;;;;;;;3.13;1.60;;;8.40;73.50;;;;;;5015468;28;20137;-71
2024/01/19 02:00:47;;;;;;;2.50;1.58;;;8.40;73.60;;;;;;4998551;28;20128;-71
2024/01/19 02:03:13;;;;;;;2.80;1.75;;;8.40;73.60;;;;;;4999158;28;20160;-71
2024/01/19 02:05:39;;;;;;;4.78;1.30;;;8.40;73.60;;;;;;5009410;28;20576;-71
2024/01/19 02:08:04;;;;;;;2.95;1.45;;;8.40;73.70;;;;;;5013527;28;20041;-71
2024/01/19 02:10:30;;;;;;;2.65;1.77;;;8.40;73.70;;;;;;5011387;28;20550;-71
2024/01/19 02:12:56;;;;;;;2.40;1.42;;;8.40;73.70;;;;;;5014333;28;20077;-71
2024/01/19 02:15:23;;;;;;;1.80;1.17;;;8.40;73.70;;;;;;5014443;28;20049;-71
2024/01/19 02:17:49;;;;;;;2.57;1.43;;;8.30;73.70;;;;;;5048011;28;20142;-71
2024/01/19 02:20:15;;;;;;;3.03;1.52;;;8.30;73.70;;;;;;4995917;28;20048;-72
2024/01/19 02:22:42;;;;;;;3.30;1.48;;;8.30;73.80;;;;;;5009946;28;20408;-71
2024/01/19 02:25:08;;;;;;;2.63;1.60;;;8.40;73.90;;;;;;5010592;28;20037;-71
2024/01/19 02:27:34;;;;;;;2.30;1.55;;;8.30;73.90;;;;;;5012470;28;20041;-71
2024/01/19 02:30:00;;;;;;;4.18;1.40;;;8.30;73.90;;;;;;5010289;28;20050;-71
2024/01/19 02:32:26;;;;;;;5.00;1.23;;;8.30;73.90;;;;;;4993011;28;20253;-72
2024/01/19 02:34:51;;;;;;;2.47;1.13;;;8.30;73.90;;;;;;5014331;28;20059;-71
2024/01/19 02:37:17;;;;;;;3.28;1.60;;;8.30;74.00;;;;;;5006858;28;20041;-71
2024/01/19 02:39:43;;;;;;;1.95;1.23;;;8.30;74.00;;;;;;5024980;28;20051;-71
2024/01/19 02:42:08;;;;;;;2.35;1.23;;;8.30;74.00;;;;;;5028787;28;20463;-71
2024/01/19 02:44:34;;;;;;;2.28;1.50;;;8.30;74.00;;;;;;5008228;28;21823;-71
2024/01/19 02:47:00;;;;;;;3.05;1.30;;;8.30;74.00;;;;;;5023633;28;20034;-71
2024/01/19 02:49:25;;;;;;;2.30;1.80;;;8.30;74.00;;;;;;5026170;28;20172;-72
2024/01/19 02:51:51;;;;;;;4.30;1.60;;;8.30;74.00;;;;;;5010626;28;20420;-71
2024/01/19 02:54:16;;;;;;;1.38;1.27;;;8.30;74.00;;;;;;5011119;28;20052;-71
2024/01/19 02:56:42;;;;;;;2.45;1.10;;;8.30;74.00;;;;;;5009762;28;20044;-71
2024/01/19 02:59:08;;;;;;;3.78;1.50;;;8.20;74.00;;;;;;5012174;28;20037;-71
2024/01/19 03:01:33;;;;;;;2.83;1.27;;;8.30;74.70;;;;;;5021831;28;20041;-71
2024/01/19 03:03:59;;;;;;;3.03;1.30;;;8.30;73.90;;;;;;5009481;28;20060;-71
2024/01/19 03:06:25;;;;;;;2.63;1.15;;;8.30;74.00;;;;;;5013417;28;20921;-71
2024/01/19 03:08:50;;;;;;;3.70;1.60;;;8.20;74.00;;;;;;5005551;28;20048;-71
2024/01/19 03:11:16;;;;;;;3.03;1.90;;;8.30;74.00;;;;;;4991159;28;20119;-71
2024/01/19 03:13:42;;;;;;;2.35;1.23;;;8.30;74.10;;;;;;5012096;28;20143;-71
2024/01/19 03:16:07;;;;;;;2.60;1.48;;;8.30;74.10;;;;;;5008644;28;20166;-71
2024/01/19 03:18:33;;;;;;;2.30;1.20;;;8.20;74.00;;;;;;5012613;28;20553;-71
2024/01/19 03:20:59;;;;;;;1.58;1.15;;;8.30;74.10;;;;;;4979653;28;20041;-71
2024/01/19 03:23:24;;;;;;;2.70;1.65;;;8.30;74.90;;;;;;5008431;28;20123;-71
2024/01/19 03:25:51;;;;;;;2.35;0.77;;;8.30;74.10;;;;;;5011129;28;20075;-71
2024/01/19 03:28:16;;;;;;;1.73;0.95;;;8.30;74.10;;;;;;5011557;28;20500;-71
2024/01/19 03:30:42;;;;;;;3.28;1.20;;;8.30;74.10;;;;;;5010813;28;20048;-71
2024/01/19 03:33:08;;;;;;;2.75;1.10;;;8.30;74.50;;;;;;4996113;28;20099;-71
2024/01/19 03:35:34;;;;;;;1.90;1.20;;;8.30;74.10;;;;;;4977261;28;20033;-71
2024/01/19 03:37:59;;;;;;;3.63;1.15;;;8.30;74.20;;;;;;5026419;28;20056;-71
2024/01/19 03:40:25;;;;;;;3.75;1.45;;;8.30;74.10;;;;;;5005644;28;20269;-71
2024/01/19 03:42:51;;;;;;;3.47;1.30;;;8.30;74.10;;;;;;5013482;28;20045;-71
2024/01/19 03:45:16;;;;;;;2.38;1.50;;;8.30;74.10;;;;;;5005981;28;20041;-71
2024/01/19 03:47:43;;;;;;;2.60;1.10;;;8.30;74.20;;;;;;5012142;28;20079;-71
2024/01/19 03:50:09;;;;;;;2.70;1.00;;;8.30;74.20;;;;;;4979719;28;20045;-71
2024/01/19 03:52:37;;;;;;;3.28;1.30;;;8.30;74.20;;;;;;5011679;28;20033;-71
2024/01/19 03:55:06;;;;;;;2.63;0.90;;;8.30;74.30;;;;;;5016234;28;20041;-71
2024/01/19 03:57:31;;;;;;;1.70;1.10;;;8.30;74.30;;;;;;5012452;28;20551;-71
2024/01/19 03:59:57;;;;;;;0.90;0.82;;;8.30;74.30;;;;;;5012734;28;20037;-71
2024/01/19 04:02:22;;;;;;;0.88;0.80;;;8.30;74.30;;;;;;5013276;28;20121;-71
2024/01/19 04:04:48;;;;;;;2.50;0.85;;;8.20;74.30;;;;;;5012905;28;20042;-71
2024/01/19 04:07:14;;;;;;;3.25;1.08;;;8.20;74.30;;;;;;4994570;28;20073;-71
2024/01/19 04:09:40;;;;;;;2.72;1.35;;;8.20;74.40;;;;;;5012728;28;20091;-71
2024/01/19 04:12:10;;;;;;;1.83;1.15;;;8.20;74.40;;;;;;5008790;28;20056;-71
2024/01/19 04:14:36;;;;;;;1.52;0.70;;;8.20;74.40;;;;;;5036672;28;20809;-71
2024/01/19 04:17:02;;;;;;;2.47;1.13;;;8.20;75.20;;;;;;5004658;28;20484;-71
2024/01/19 04:19:28;;;;;;;3.85;1.13;;;8.20;74.50;;;;;;4988134;28;20096;-71
2024/01/19 04:21:53;;;;;;;3.08;0.90;;;8.30;74.50;;;;;;5007819;28;20074;-71
2024/01/19 04:24:19;;;;;;;1.38;0.77;;;8.20;74.50;;;;;;5007144;28;20045;-71
2024/01/19 04:26:44;;;;;;;1.63;1.00;;;8.20;74.60;;;;;;4981121;28;20075;-71
2024/01/19 04:29:10;;;;;;;2.05;0.98;;;8.20;74.50;;;;;;5005078;28;20424;-72
2024/01/19 04:31:35;;;;;;;2.58;0.70;;;8.20;74.50;;;;;;5004652;28;20072;-71
2024/01/19 04:34:01;;;;;;;0.98;0.70;;;8.20;74.60;;;;;;5029070;28;20055;-71
2024/01/19 04:36:27;;;;;;;1.33;0.98;;;8.20;74.60;;;;;;5025844;28;20112;-71
2024/01/19 04:38:52;;;;;;;2.05;0.90;;;8.20;74.60;;;;;;4992375;28;20037;-71
2024/01/19 04:41:18;;;;;;;1.33;0.80;;;8.10;74.60;;;;;;5013493;28;20091;-71
2024/01/19 04:43:44;;;;;;;0.80;0.70;;;8.10;75.30;;;;;;5037385;28;20029;-71
2024/01/19 04:46:09;;;;;;;1.95;0.90;;;8.20;74.60;;;;;;5015420;28;20049;-71
2024/01/19 04:48:35;;;;;;;1.95;0.82;;;8.10;74.50;;;;;;4988864;28;20095;-71
2024/01/19 04:51:00;;;;;;;2.90;0.90;;;8.20;74.60;;;;;;5026298;28;20045;-71
2024/01/19 04:53:26;;;;;;;0.75;0.60;;;8.20;74.60;;;;;;5011355;28;20493;-71
2024/01/19 04:55:52;;;;;;;1.23;0.70;;;8.20;74.60;;;;;;5009577;28;20378;-71
2024/01/19 04:58:17;;;;;;;1.00;0.80;;;8.20;74.60;;;;;;5041820;28;20037;-71
2024/01/19 05:00:43;;;;;;;1.58;0.73;;;8.20;74.60;;;;;;5011158;28;20076;-71
2024/01/19 05:03:08;;;;;;;2.08;0.90;;;8.10;74.60;;;;;;5043687;28;20503;-72
2024/01/19 05:05:34;;;;;;;1.55;0.60;;;8.10;74.50;;;;;;5024360;28;20068;-71
2024/01/19 05:08:00;;;;;;;1.63;0.80;;;8.20;74.60;;;;;;5008798;28;20473;-71
2024/01/19 05:10:26;;;;;;;1.33;0.60;;;8.10;74.60;;;;;;4972890;28;20042;-71
2024/01/19 05:12:51;;;;;;;1.05;0.57;;;8.10;74.60;;;;;;5005176;28;20067;-71
2024/01/19 05:15:17;;;;;;;2.15;0.80;;;8.10;74.60;;;;;;5011442;28;20076;-71
2024/01/19 05:17:42;;;;;;;1.13;0.70;;;8.10;74.60;;;;;;4982786;28;20037;-71
2024/01/19 05:20:09;;;;;;;1.35;0.60;;;8.10;74.50;;;;;;5040997;28;20048;-71
2024/01/19 05:22:34;;;;;;;3.40;0.70;;;8.10;74.50;;;;;;5008290;28;20115;-71
2024/01/19 05:25:02;;;;;;;1.17;0.68;;;8.10;74.50;;;;;;5009754;28;20049;-71
2024/01/19 05:27:28;;;;;;;1.17;0.75;;;8.10;74.50;;;;;;5008136;28;20560;-71
2024/01/19 05:29:53;;;;;;;1.60;0.70;;;8.10;74.50;;;;;;5007419;28;20037;-71
2024/01/19 05:32:19;;;;;;;1.42;0.73;;;8.10;74.50;;;;;;5024303;28;20477;-71
2024/01/19 05:34:44;;;;;;;1.40;0.70;;;8.10;74.50;;;;;;5003625;28;20040;-71
2024/01/19 05:37:10;;;;;;;2.05;0.50;;;8.10;74.50;;;;;;5005200;28;20037;-71
2024/01/19 05:39:36;;;;;;;2.13;0.80;;;8.10;74.50;;;;;;5007805;28;20413;-71
2024/01/19 05:42:02;;;;;;;1.60;0.65;;;8.10;74.50;;;;;;4988289;28;20185;-71
2024/01/19 05:44:28;;;;;;;0.90;0.70;;;8.10;74.50;;;;;;5008827;28;20053;-71
2024/01/19 05:46:54;;;;;;;0.68;0.60;;;8.10;74.50;;;;;;4996332;28;20037;-71
2024/01/19 05:49:19;;;;;;;0.93;0.52;;;8.10;74.50;;;;;;4993722;28;20416;-71
2024/01/19 05:51:45;;;;;;;1.90;0.55;;;8.10;74.60;;;;;;5026452;28;20049;-71
2024/01/19 05:54:11;;;;;;;1.35;0.68;;;8.10;74.50;;;;;;5009679;28;20029;-71
2024/01/19 05:56:37;;;;;;;2.10;0.77;;;8.10;74.50;;;;;;5005660;28;20049;-71
2024/01/19 05:59:02;;;;;;;4.00;0.75;;;8.10;74.60;;;;;;5003525;28;20049;-71
2024/01/19 06:01:28;;;;;;;1.77;0.57;;;8.10;74.50;;;;;;5024846;28;20041;-71
2024/01/19 06:03:54;;;;;;;1.70;0.63;;;8.10;74.50;;;;;;5027029;28;20042;-71
2024/01/19 06:06:19;;;;;;;1.00;0.52;;;8.10;74.50;;;;;;5008756;28;20054;-71
2024/01/19 06:08:45;;;;;;;2.17;0.73;;;8.10;74.50;;;;;;5008104;28;20061;-71
2024/01/19 06:11:10;;;;;;;2.05;0.65;;;8.10;74.60;;;;;;5056094;28;20043;-71
2024/01/19 06:13:39;;;;;;;0.73;0.68;;;8.10;74.60;;;;;;4991935;28;20060;-71
2024/01/19 06:16:05;;;;;;;0.93;0.80;;;8.10;74.60;;;;;;5021143;28;20485;-71
2024/01/19 06:18:31;;;;;;;2.38;1.02;;;8.10;74.60;;;;;;5010624;28;20037;-71
2024/01/19 06:21:00;;;;;;;0.70;0.70;;;8.10;74.60;;;;;;5025218;28;20041;-71
2024/01/19 06:23:26;;;;;;;1.40;0.70;;;8.10;74.60;;;;;;5012218;28;20045;-71
2024/01/19 06:25:51;;;;;;;2.17;0.82;;;8.10;74.60;;;;;;4976461;28;20045;-71
2024/01/19 06:28:17;;;;;;;1.85;0.73;;;8.10;74.60;;;;;;5031321;28;20132;-71
2024/01/19 06:30:44;;;;;;;1.33;0.85;;;8.10;74.60;;;;;;5013103;28;20033;-71
2024/01/19 06:33:10;;;;;;;1.83;0.70;;;8.10;74.60;;;;;;4993879;28;20034;-71
2024/01/19 06:35:36;;;;;;;1.25;0.55;;;8.00;74.50;;;;;;4991855;28;20453;-71
2024/01/19 06:38:03;;;;;;;2.35;0.70;;;8.10;74.60;;;;;;5009351;28;20069;-71
2024/01/19 06:40:29;;;;;;;1.30;0.68;;;8.10;74.60;;;;;;5007054;28;20077;-71
2024/01/19 06:42:55;;;;;;;1.17;0.75;;;8.10;74.60;;;;;;5015986;28;20071;-71
2024/01/19 06:45:20;;;;;;;2.08;0.80;;;8.10;74.60;;;;;;5057893;28;20572;-71
2024/01/19 06:47:46;;;;;;;1.58;0.80;;;8.10;74.60;;;;;;4996336;28;20120;-71
2024/01/19 06:50:11;;;;;;;2.15;0.82;;;8.10;74.60;;;;;;5008828;28;20029;-71
2024/01/19 06:52:37;;;;;;;2.40;0.70;;;8.10;74.60;;;;;;5009379;28;20041;-71
2024/01/19 06:55:04;;;;;;;1.67;0.90;;;8.10;74.60;;;;;;4997231;28;20025;-71
2024/01/19 06:57:30;;;;;;;2.22;0.70;;;8.10;74.60;;;;;;5006255;28;20558;-71
2024/01/19 06:59:55;;;;;;;1.33;0.70;;;8.10;74.60;;;;;;5011901;28;20042;-71
2024/01/19 07:02:21;;;;;;;1.27;0.70;;;8.10;74.60;;;;;;5011483;28;20042;-71
2024/01/19 07:04:48;;;;;;;2.70;0.63;;;8.10;74.60;;;;;;5013086;28;20048;-71
2024/01/19 07:07:14;;;;;;;1.77;0.93;;;8.10;74.60;;;;;;5010474;28;20060;-71
2024/01/19 07:09:39;;;;;;;0.50;0.50;;;8.10;74.60;;;;;;5012522;28;20441;-71
2024/01/19 07:12:05;;;;;;;2.15;0.77;;;8.10;74.60;;;;;;5014265;28;20596;-71
2024/01/19 07:14:31;;;;;;;1.90;0.98;;;8.10;74.60;;;;;;5024179;28;20072;-71
2024/01/19 07:16:56;;;;;;;1.98;1.20;;;8.10;74.60;;;;;;4992344;28;20069;-71
2024/01/19 07:19:22;;;;;;;2.22;1.10;;;8.10;74.60;;;;;;5030593;28;20052;-71
2024/01/19 07:21:48;;;;;;;2.47;0.88;;;8.10;74.60;;;;;;5008156;28;20038;-71
2024/01/19 07:24:13;;;;;;;2.13;0.82;;;8.10;74.60;;;;;;4990774;28;20041;-71
2024/01/19 07:26:39;;;;;;;2.92;0.85;;;8.10;74.60;;;;;;5011549;28;20428;-71
2024/01/19 07:29:06;;;;;;;2.25;1.10;;;8.10;74.70;;;;;;5027621;28;20035;-71
2024/01/19 07:31:41;;;;;;;1.85;0.55;;;8.10;74.70;;;;;;4979255;28;20034;-71
2024/01/19 07:34:06;;;;;;;2.78;1.00;;;8.00;74.70;;;;;;5009741;28;20041;-72
2024/01/19 07:36:32;;;;;;;1.33;0.70;;;8.10;74.80;;;;;;5007460;28;20057;-72
2024/01/19 07:38:57;;;;;;;3.67;1.15;;;8.00;74.70;;;;;;4989836;28;20473;-72
2024/01/19 07:41:23;;;;;;;4.10;1.20;;;8.00;74.80;;;;;;5010333;28;20120;-71
2024/01/19 07:43:49;;;;;;;5.18;1.35;;;8.00;75.00;;;;;;5011371;28;20049;-71
2024/01/19 07:46:14;;;;;;;6.75;1.20;;;7.90;75.00;;;;;;5038723;28;20048;-71
2024/01/19 07:48:43;;;;;;;2.55;1.05;;;7.80;75.10;;;;;;5021888;28;20033;-71
2024/01/19 07:51:09;;;;;;;2.20;0.95;;;7.90;75.20;;;;;;5008125;28;20099;-71
2024/01/19 07:53:35;;;;;;;4.30;0.98;;;7.90;75.20;;;;;;5011388;28;20489;-71
2024/01/19 07:56:00;;;;;;;1.38;0.63;;;7.90;75.20;;;;;;5028865;28;20033;-72
2024/01/19 07:58:27;;;;;;;2.72;0.63;;;7.90;75.20;;;;;;4996017;28;20037;-71
2024/01/19 08:00:53;;;;;;;1.70;0.63;;;7.90;75.20;;;;;;5027699;28;20033;-71
2024/01/19 08:03:19;;;;;;;2.47;0.60;;;7.90;75.20;;;;;;5013111;28;20033;-71
2024/01/19 08:05:45;;;;;;;1.60;0.70;;;7.90;75.20;;;;;;5029701;28;20041;-71
2024/01/19 08:08:11;;;;;;;3.42;1.00;;;7.90;75.10;;;;;;5011727;28;20068;-71
2024/01/19 08:10:38;;;;;;;2.50;0.93;;;7.90;75.10;;;;;;5005300;28;20402;-71
2024/01/19 08:13:04;;;;;;;1.17;0.77;;;7.90;75.10;;;;;;5029866;28;20107;-71
2024/01/19 08:15:29;;;;;;;1.77;0.90;;;7.90;75.10;;;;;;5014849;28;20033;-71
2024/01/19 08:17:55;;;;;;;3.00;0.98;;;8.00;75.20;;;;;;5014736;28;20037;-71
2024/01/19 08:20:22;;;;;;;2.33;0.90;;;8.00;75.20;;;;;;5010589;28;20045;-71
2024/01/19 08:22:48;;;;;;;1.98;1.17;;;8.00;75.20;;;;;;5043584;28;20052;-71
2024/01/19 08:25:14;;;;;;;2.53;0.80;;;8.00;75.30;;;;;;5028813;28;20038;-71
2024/01/19 08:27:43;;;;;;;2.33;1.13;;;8.00;75.20;;;;;;5013977;28;20099;-71
2024/01/19 08:30:09;;;;;;;1.38;0.70;;;8.00;75.30;;;;;;4981296;28;20072;-71
2024/01/19 08:32:35;;;;;;;2.67;0.93;;;8.00;75.30;;;;;;4998320;28;20041;-71
2024/01/19 08:35:08;;;;;;;3.45;1.20;;;8.00;75.30;;;;;;5010284;28;20111;-71
2024/01/19 08:37:37;;;;;;;2.97;0.70;;;8.00;75.40;;;;;;4981522;28;20572;-71
2024/01/19 08:40:05;;;;;;;1.23;0.70;;;8.00;75.40;;;;;;5014394;28;20038;-71
2024/01/19 08:42:31;;;;;;;1.38;0.63;;;8.00;75.30;;;;;;5029290;28;20181;-71
2024/01/19 08:44:57;;;;;;;1.75;0.75;;;8.00;75.40;;;;;;5012603;28;20044;-71
2024/01/19 08:47:22;;;;;;;1.35;1.05;;;8.00;75.40;;;;;;5011620;28;20075;-71
2024/01/19 08:49:48;;;;;;;1.63;0.77;;;8.00;75.40;;;;;;5014514;28;20291;-71
2024/01/19 08:52:13;;;;;;;1.77;0.65;;;8.00;75.40;;;;;;5030031;28;20485;-71
2024/01/19 08:54:39;;;;;;;1.48;0.73;;;8.10;75.40;;;;;;4997911;28;20099;-71
2024/01/19 08:57:05;;;;;;;2.05;0.98;;;8.00;75.40;;;;;;5012109;28;20045;-71
2024/01/19 08:59:32;;;;;;;2.60;0.80;;;8.10;75.50;;;;;;5012983;28;20112;-71
2024/01/19 09:01:57;;;;;;;2.30;0.73;;;8.10;75.50;;;;;;4997510;28;20095;-71
2024/01/19 09:04:24;;;;;;;2.95;0.90;;;8.10;75.50;;;;;;4997546;28;20447;-71
2024/01/19 09:06:50;;;;;;;1.08;0.80;;;8.10;75.50;;;;;;5009641;28;20107;-71
2024/01/19 09:09:15;;;;;;;1.20;0.95;;;8.10;75.50;;;;;;5029072;28;20041;-71
2024/01/19 09:11:41;;;;;;;1.67;0.80;;;8.10;75.50;;;;;;5010792;28;20407;-71
2024/01/19 09:14:09;;;;;;;3.85;0.90;;;8.10;75.50;;;;;;4997588;28;20408;-71
2024/01/19 09:16:35;;;;;;;;;;;8.10;75.60;;;;;;5015035;28;20047;-71
2024/01/19 09:19:00;;;;;;;1.75;0.73;;;8.10;75.70;;;;;;5013196;28;20377;-71
2024/01/19 09:21:26;;;;;;;2.38;0.98;;;8.10;75.60;;;;;;5029054;28;20036;-71
2024/01/19 09:23:53;;;;;;;1.35;0.90;;;8.10;75.60;;;;;;5013382;28;20045;-71
2024/01/19 09:26:22;;;;;;;3.05;1.17;;;8.10;75.60;;;;;;5011454;28;20037;-72
2024/01/19 09:28:48;;;;;;;2.42;0.88;;;8.10;76.00;;;;;;4997034;28;20069;-73
2024/01/19 09:31:14;;;;;;;2.92;0.77;;;8.10;76.10;;;;;;5009578;28;20180;-73
2024/01/19 09:33:39;;;;;;;3.85;0.88;;;8.10;76.20;;;;;;5023460;28;20061;-73
2024/01/19 09:36:06;;;;;;;1.88;0.70;;;8.10;76.20;;;;;;5011728;28;20523;-73
2024/01/19 09:38:35;;;;;;;1.35;0.85;;;8.10;76.20;;;;;;5029490;28;20026;-73
2024/01/19 09:41:03;;;;;;;2.80;0.93;;;8.10;76.30;;;;;;5030041;28;20041;-73
2024/01/19 09:43:32;;;;;;;2.35;1.20;;;8.10;76.20;;;;;;5035916;28;20481;-73
2024/01/19 09:45:57;;;;;;;1.30;0.82;;;8.10;76.30;;;;;;5011616;28;20041;-73
2024/01/19 09:48:24;;;;;;;2.47;1.35;;;8.20;76.30;;;;;;5004875;28;20045;-73
2024/01/19 09:50:53;;;;;;;2.60;0.82;;;8.20;76.30;;;;;;4998199;28;20308;-73
2024/01/19 09:53:32;;;;;;;1.23;0.73;;;8.10;76.20;;;;;;5012225;28;20041;-73
2024/01/19 09:56:01;;;;;;;2.35;0.90;;;8.20;76.30;;;;;;5022487;28;20034;-73
2024/01/19 09:58:27;;;;;;;2.10;0.98;;;8.20;76.30;;;;;;5008094;28;20497;-73
2024/01/19 10:00:53;;;;;;;1.60;0.90;;;8.20;76.30;;;;;;4980523;28;20038;-73
2024/01/19 10:03:19;;;;;;;4.22;1.60;;;8.20;76.30;;;;;;4979609;28;20025;-73
2024/01/19 10:05:45;;;;;;;1.35;1.02;;;8.20;76.30;;;;;;5025702;28;20116;-73
2024/01/19 10:08:14;;;;;;;1.92;1.02;;;8.20;76.30;;;;;;4995886;28;20046;-73
2024/01/19 10:10:43;;;;;;;4.05;1.52;;;8.20;76.30;;;;;;4994050;28;20066;-73
2024/01/19 10:13:09;;;;;;;1.48;1.00;;;8.20;76.30;;;;;;4999392;28;20060;-73
2024/01/19 10:15:35;;;;;;;1.95;1.17;;;8.20;76.30;;;;;;4999988;28;20033;-73
2024/01/19 10:18:00;;;;;;;2.40;1.27;;;8.20;77.00;;;;;;5027949;28;20045;-73
2024/01/19 10:20:26;;;;;;;3.08;1.25;;;8.30;76.40;;;;;;5017169;28;20045;-73
2024/01/19 10:22:52;;;;;;;2.15;1.23;;;8.20;76.30;;;;;;5022093;28;20717;-73
2024/01/19 10:25:18;;;;;;;2.78;1.13;;;8.30;76.40;;;;;;5033199;28;20060;-73
2024/01/19 10:27:51;;;;;;;2.03;1.20;;;8.30;76.40;;;;;;5016933;28;20041;-73
2024/01/19 10:30:27;;;;;;;3.25;1.30;;;8.30;76.40;;;;;;5017318;28;20496;-72
2024/01/19 10:33:02;;;;;;;4.50;1.13;;;8.30;76.30;;;;;;5012138;28;20038;-72
2024/01/19 10:35:28;;;;;;;2.60;1.25;;;8.30;76.40;;;;;;5017201;28;20108;-72
2024/01/19 10:38:02;;;;;;;5.28;1.20;;;8.30;76.40;;;;;;5015700;28;20140;-72
2024/01/19 10:40:28;;;;;;;3.45;1.52;;;8.30;76.40;;;;;;4988086;28;20084;-71
2024/01/19 10:42:56;;;;;;;1.88;1.30;;;8.30;76.50;;;;;;4983610;28;20050;-71
2024/01/19 10:45:25;;;;;;;2.05;1.20;;;8.30;76.40;;;;;;5016779;28;20563;-71
2024/01/19 10:47:53;;;;;;;2.72;1.17;;;8.30;76.40;;;;;;4999886;28;20076;-71
2024/01/19 10:50:19;;;;;;;5.07;1.20;;;8.30;76.40;;;;;;5000063;28;20041;-71
2024/01/19 10:52:51;;;;;;;4.18;1.52;;;8.30;76.40;;;;;;5016074;28;20049;-71
2024/01/19 10:55:21;;;;;;;2.70;1.50;;;8.40;76.50;;;;;;5021641;28;20077;-71
2024/01/19 10:57:54;;;;;;;5.88;1.48;;;8.30;76.50;;;;;;5016390;28;20071;-71
2024/01/19 11:00:24;;;;;;;4.82;1.95;;;8.30;76.40;;;;;;5016546;28;20046;-71
2024/01/19 11:02:52;;;;;;;3.38;1.45;;;8.40;76.50;;;;;;4999260;28;20052;-71
2024/01/19 11:05:19;;;;;;;2.67;1.38;;;8.30;76.50;;;;;;5032410;28;20116;-71
2024/01/19 11:07:45;;;;;;;4.43;1.70;;;8.30;76.50;;;;;;5013754;28;20049;-71
2024/01/19 11:10:12;;;;;;;4.07;1.40;;;8.40;76.50;;;;;;5032523;28;20084;-71
2024/01/19 11:12:39;;;;;;;3.75;1.90;;;8.40;76.50;;;;;;4999849;28;20083;-71
2024/01/19 11:15:08;;;;;;;2.23;1.10;;;8.40;76.50;;;;;;5012247;28;20115;-71
2024/01/19 11:17:34;;;;;;;2.53;1.38;;;8.40;76.50;;;;;;5011403;28;20485;-71
2024/01/19 11:19:59;;;;;;;3.72;1.60;;;8.40;76.50;;;;;;4983400;28;20160;-71
2024/01/19 11:22:25;;;;;;;4.95;1.95;;;8.40;76.50;;;;;;5016051;28;20048;-71
2024/01/19 11:24:50;;;;;;;3.10;1.60;;;8.40;76.50;;;;;;4999485;28;20396;-71
2024/01/19 11:27:21;;;;;;;4.30;1.40;;;8.40;76.50;;;;;;5012022;28;20390;-71
2024/01/19 11:29:46;;;;;;;3.20;1.33;;;8.40;76.50;;;;;;5014774;28;20057;-71
2024/01/19 11:32:14;;;;;;;3.58;1.73;;;8.50;76.50;;;;;;5015550;28;20037;-71
2024/01/19 11:34:50;;;;;;;3.63;1.73;;;8.40;76.50;;;;;;4984709;28;20039;-71
2024/01/19 11:37:41;;;;;;;2.45;1.30;;;8.50;76.60;;;;;;5014557;28;20041;-71
2024/01/19 11:40:07;;;;;;;6.53;1.50;;;8.40;76.50;;;;;;5032044;28;20483;-71
2024/01/19 11:42:41;;;;;;;4.10;1.38;;;8.50;76.50;;;;;;5013765;28;20080;-71
2024/01/19 11:45:07;;;;;;;3.72;1.55;;;8.50;76.50;;;;;;5031441;28;20042;-71
2024/01/19 11:47:36;;;;;;;3.00;1.20;;;8.60;76.60;;;;;;4998713;28;20115;-71
2024/01/19 11:50:05;;;;;;;3.90;1.45;;;8.50;76.50;;;;;;5031859;28;20090;-71
2024/01/19 11:52:35;;;;;;;3.08;1.33;;;8.50;76.60;;;;;;5016094;28;20378;-71
2024/01/19 11:55:26;;;;;;;3.15;1.70;;;8.50;76.50;;;;;;5014576;28;20041;-71
2024/01/19 11:57:52;;;;;;;5.60;1.48;;;8.50;76.50;;;;;;5043645;28;20493;-71
2024/01/19 12:00:21;;;;;;;1.88;1.45;;;8.50;76.60;;;;;;4987543;28;20059;-71
2024/01/19 12:02:47;;;;;;;3.38;1.77;;;8.50;76.50;;;;;;5014298;28;20559;-71
2024/01/19 12:05:12;;;;;;;5.63;1.35;;;8.50;76.50;;;;;;5014716;28;20034;-71
2024/01/19 12:07:39;;;;;;;7.05;1.38;;;8.50;76.60;;;;;;5015568;28;20045;-71
2024/01/19 12:10:08;;;;;;;5.90;2.38;;;8.60;76.50;;;;;;5015070;28;20029;-71
2024/01/19 12:12:34;;;;;;;2.67;1.10;;;8.60;76.60;;;;;;4998587;28;20060;-70
2024/01/19 12:15:10;;;;;;;3.38;1.50;;;8.60;76.60;;;;;;5014267;28;20040;-70
2024/01/19 12:17:37;;;;;;;6.15;1.75;;;8.60;76.60;;;;;;4981696;28;20038;-71
2024/01/19 12:20:03;;;;;;;4.47;1.45;;;8.60;76.60;;;;;;5018458;28;20100;-71
2024/01/19 12:22:29;;;;;;;2.58;1.13;;;8.60;76.50;;;;;;5014488;28;20110;-71
2024/01/19 12:25:11;;;;;;;2.70;1.30;;;8.60;76.60;;;;;;5014321;28;20046;-72
2024/01/19 12:27:37;;;;;;;5.30;1.83;;;8.60;76.60;;;;;;5029166;28;20041;-71
2024/01/19 12:30:11;;;;;;;3.85;1.42;;;8.60;76.60;;;;;;5014626;28;20083;-71
2024/01/19 12:32:37;;;;;;;4.50;1.50;;;8.60;76.50;;;;;;5014123;28;20037;-71
2024/01/19 12:35:03;;;;;;;2.72;1.42;;;8.60;76.50;;;;;;5014422;28;20041;-71
2024/01/19 12:37:29;;;;;;;3.55;1.38;;;8.60;76.50;;;;;;5012865;28;20045;-71
2024/01/19 12:40:09;;;;;;;6.82;1.63;;;8.60;76.60;;;;;;5014035;28;20048;-71
2024/01/19 12:42:36;;;;;;;3.90;1.40;;;8.60;76.60;;;;;;4997051;28;20041;-71
2024/01/19 12:45:03;;;;;;;4.93;1.50;;;8.60;76.50;;;;;;5012412;28;20041;-71
2024/01/19 12:47:28;;;;;;;4.35;1.75;;;8.60;76.50;;;;;;5013025;28;20095;-71
2024/01/19 12:49:57;;;;;;;3.80;1.40;;;8.70;76.60;;;;;;5024175;28;20038;-71
2024/01/19 12:52:23;;;;;;;1.98;1.50;;;8.70;76.70;;;;;;5014597;28;20041;-71
2024/01/19 12:54:49;;;;;;;1.90;1.40;;;8.70;76.60;;;;;;5008899;28;20447;-71